Disclaimer

Please do not use the information listed here in-flight or in-navigation, as they are not provided to us by the airports but are provided by volunteers, so they might be outdated.

Search


Regions


Airport information page

Radio informations:
KOZANI AFIS - 118.2 MHz
KOZANI RDO - 5637 MHz

Airport informations:
Latitude: 40° 17' 10.00" N
Longitude: 021° 50' 27.00" E
Elevation: 2059 feet - 628 meters
Operating hours: Remarks
Operating agency: Civil government, landing fees and diplomatic clearance may be required
Timezone: UTC+2(+3DT) - Last Sunday in March to last Sunday in October
Fuel: N/A

Runway information:
14/32 - 5978 x 98 feet< - >1822 x 30 meters

Recent METARs:
LGKZ 151150Z 12004KT 9999 FEW005 SCT025 BKN070 09/07 Q1015
LGKZ 151150Z 12004KT 9999 FEW005 SCT025 BKN070 09/07 Q1015

Airport on the map: